sensor_id;sensor_type;location;lat;lon;timestamp;pressure;altitude;pressure_sealevel;temperature;humidity
59274;BME280;45044;41.572;24.730;2023-04-03T00:00:43;90728.38;;;4.27;100.00
59274;BME280;45044;41.572;24.730;2023-04-03T00:03:10;90721.63;;;4.23;100.00
59274;BME280;45044;41.572;24.730;2023-04-03T00:05:37;90728.72;;;4.26;100.00
59274;BME280;45044;41.572;24.730;2023-04-03T00:08:04;90726.59;;;4.08;100.00
59274;BME280;45044;41.572;24.730;2023-04-03T00:10:34;90720.06;;;4.18;100.00
59274;BME280;45044;41.572;24.730;2023-04-03T00:13:02;90710.47;;;4.22;100.00
59274;BME280;45044;41.572;24.730;2023-04-03T00:15:29;90710.97;;;4.08;100.00
59274;BME280;45044;41.572;24.730;2023-04-03T00:17:56;90714.78;;;3.91;100.00
59274;BME280;45044;41.572;24.730;2023-04-03T00:20:23;90716.41;;;3.76;100.00
59274;BME280;45044;41.572;24.730;2023-04-03T00:22:50;90711.47;;;3.70;100.00
59274;BME280;45044;41.572;24.730;2023-04-03T00:25:17;90690.28;;;3.68;100.00
59274;BME280;45044;41.572;24.730;2023-04-03T00:27:44;90699.09;;;3.87;100.00
59274;BME280;45044;41.572;24.730;2023-04-03T00:30:14;90701.78;;;3.91;100.00
59274;BME280;45044;41.572;24.730;2023-04-03T00:32:41;90688.03;;;3.90;100.00
59274;BME280;45044;41.572;24.730;2023-04-03T00:35:08;90690.22;;;3.88;100.00
59274;BME280;45044;41.572;24.730;2023-04-03T00:37:36;90683.13;;;3.85;100.00
59274;BME280;45044;41.572;24.730;2023-04-03T00:40:03;90683.00;;;3.78;100.00
59274;BME280;45044;41.572;24.730;2023-04-03T00:42:30;90689.00;;;3.82;100.00
59274;BME280;45044;41.572;24.730;2023-04-03T00:47:24;90679.13;;;3.91;100.00
59274;BME280;45044;41.572;24.730;2023-04-03T00:49:52;90673.91;;;3.91;100.00
59274;BME280;45044;41.572;24.730;2023-04-03T00:52:22;90678.69;;;3.66;100.00
59274;BME280;45044;41.572;24.730;2023-04-03T00:54:52;90675.94;;;3.35;100.00
59274;BME280;45044;41.572;24.730;2023-04-03T00:57:22;90675.72;;;3.44;100.00
59274;BME280;45044;41.572;24.730;2023-04-03T00:59:54;90674.28;;;3.46;100.00
59274;BME280;45044;41.572;24.730;2023-04-03T01:02:22;90677.38;;;3.52;100.00
59274;BME280;45044;41.572;24.730;2023-04-03T01:04:49;90685.91;;;3.33;100.00
59274;BME280;45044;41.572;24.730;2023-04-03T01:07:19;90676.88;;;3.46;100.00
59274;BME280;45044;41.572;24.730;2023-04-03T01:09:51;90673.03;;;3.60;100.00
59274;BME280;45044;41.572;24.730;2023-04-03T01:14:53;90669.59;;;3.76;100.00
59274;BME280;45044;41.572;24.730;2023-04-03T01:28:09;90679.81;;;3.88;100.00
59274;BME280;45044;41.572;24.730;2023-04-03T01:33:33;90685.56;;;3.54;100.00
59274;BME280;45044;41.572;24.730;2023-04-03T01:36:00;90680.31;;;3.51;100.00
59274;BME280;45044;41.572;24.730;2023-04-03T01:38:27;90683.22;;;3.49;100.00
59274;BME280;45044;41.572;24.730;2023-04-03T01:40:54;90676.19;;;3.50;100.00
59274;BME280;45044;41.572;24.730;2023-04-03T01:43:21;90689.19;;;3.50;100.00
59274;BME280;45044;41.572;24.730;2023-04-03T01:45:48;90686.31;;;3.35;100.00
59274;BME280;45044;41.572;24.730;2023-04-03T01:48:16;90698.50;;;3.31;100.00
59274;BME280;45044;41.572;24.730;2023-04-03T01:50:43;90696.22;;;3.29;100.00
59274;BME280;45044;41.572;24.730;2023-04-03T01:53:10;90701.56;;;3.37;100.00
59274;BME280;45044;41.572;24.730;2023-04-03T01:55:37;90693.44;;;3.38;100.00
59274;BME280;45044;41.572;24.730;2023-04-03T01:58:03;90693.91;;;3.24;100.00
59274;BME280;45044;41.572;24.730;2023-04-03T02:00:30;90696.38;;;2.97;100.00
59274;BME280;45044;41.572;24.730;2023-04-03T02:02:57;90691.38;;;3.08;100.00
59274;BME280;45044;41.572;24.730;2023-04-03T02:05:23;90697.13;;;3.17;100.00
59274;BME280;45044;41.572;24.730;2023-04-03T02:07:50;90696.50;;;3.24;100.00
59274;BME280;45044;41.572;24.730;2023-04-03T02:10:17;90697.69;;;3.27;100.00
59274;BME280;45044;41.572;24.730;2023-04-03T02:12:44;90688.16;;;3.15;100.00
59274;BME280;45044;41.572;24.730;2023-04-03T02:15:11;90697.47;;;3.16;100.00
59274;BME280;45044;41.572;24.730;2023-04-03T02:17:38;90691.59;;;3.19;100.00
59274;BME280;45044;41.572;24.730;2023-04-03T02:20:05;90688.22;;;3.18;100.00
59274;BME280;45044;41.572;24.730;2023-04-03T02:22:33;90686.47;;;3.22;100.00
59274;BME280;45044;41.572;24.730;2023-04-03T02:25:01;90677.97;;;3.26;100.00
59274;BME280;45044;41.572;24.730;2023-04-03T02:27:27;90671.44;;;3.12;100.00
59274;BME280;45044;41.572;24.730;2023-04-03T02:29:54;90673.13;;;3.04;100.00
59274;BME280;45044;41.572;24.730;2023-04-03T02:32:21;90675.25;;;2.98;100.00
59274;BME280;45044;41.572;24.730;2023-04-03T02:34:48;90663.56;;;3.08;100.00
59274;BME280;45044;41.572;24.730;2023-04-03T02:37:15;90667.47;;;3.18;100.00
59274;BME280;45044;41.572;24.730;2023-04-03T02:39:42;90662.66;;;3.20;100.00
59274;BME280;45044;41.572;24.730;2023-04-03T02:42:08;90658.88;;;3.14;100.00
59274;BME280;45044;41.572;24.730;2023-04-03T02:44:35;90655.44;;;3.10;100.00
59274;BME280;45044;41.572;24.730;2023-04-03T02:47:02;90652.56;;;2.95;100.00
59274;BME280;45044;41.572;24.730;2023-04-03T02:49:29;90652.63;;;2.99;100.00
59274;BME280;45044;41.572;24.730;2023-04-03T02:51:56;90646.69;;;2.98;100.00
59274;BME280;45044;41.572;24.730;2023-04-03T02:54:23;90645.13;;;2.94;100.00
59274;BME280;45044;41.572;24.730;2023-04-03T02:56:50;90648.16;;;2.60;100.00
59274;BME280;45044;41.572;24.730;2023-04-03T02:59:17;90656.09;;;2.67;100.00
59274;BME280;45044;41.572;24.730;2023-04-03T03:01:44;90656.56;;;2.73;100.00
59274;BME280;45044;41.572;24.730;2023-04-03T03:04:11;90660.19;;;2.68;100.00
59274;BME280;45044;41.572;24.730;2023-04-03T03:06:38;90666.38;;;2.80;100.00
59274;BME280;45044;41.572;24.730;2023-04-03T03:09:05;90662.22;;;2.59;100.00
59274;BME280;45044;41.572;24.730;2023-04-03T03:11:32;90648.38;;;2.35;100.00
59274;BME280;45044;41.572;24.730;2023-04-03T03:13:59;90645.03;;;2.18;100.00
59274;BME280;45044;41.572;24.730;2023-04-03T03:16:25;90645.13;;;2.06;100.00
59274;BME280;45044;41.572;24.730;2023-04-03T03:18:53;90646.41;;;2.12;100.00
59274;BME280;45044;41.572;24.730;2023-04-03T03:21:20;90639.78;;;2.14;100.00
59274;BME280;45044;41.572;24.730;2023-04-03T03:23:46;90654.06;;;2.24;100.00
59274;BME280;45044;41.572;24.730;2023-04-03T03:26:13;90655.50;;;2.38;100.00
59274;BME280;45044;41.572;24.730;2023-04-03T03:28:40;90656.72;;;2.44;100.00
59274;BME280;45044;41.572;24.730;2023-04-03T03:31:08;90641.38;;;2.55;100.00
59274;BME280;45044;41.572;24.730;2023-04-03T03:33:35;90648.41;;;2.55;100.00
59274;BME280;45044;41.572;24.730;2023-04-03T03:36:02;90663.63;;;2.20;100.00
59274;BME280;45044;41.572;24.730;2023-04-03T03:38:29;90679.84;;;1.69;100.00
59274;BME280;45044;41.572;24.730;2023-04-03T03:40:56;90687.13;;;1.95;100.00
59274;BME280;45044;41.572;24.730;2023-04-03T03:43:23;90697.34;;;2.04;100.00
59274;BME280;45044;41.572;24.730;2023-04-03T03:45:53;90695.06;;;2.19;100.00
59274;BME280;45044;41.572;24.730;2023-04-03T03:48:21;90694.63;;;2.33;100.00
59274;BME280;45044;41.572;24.730;2023-04-03T03:50:49;90707.78;;;2.40;100.00
59274;BME280;45044;41.572;24.730;2023-04-03T03:53:15;90714.00;;;2.19;100.00
59274;BME280;45044;41.572;24.730;2023-04-03T03:55:42;90732.06;;;2.32;100.00
59274;BME280;45044;41.572;24.730;2023-04-03T03:58:09;90729.38;;;2.44;100.00
59274;BME280;45044;41.572;24.730;2023-04-03T04:00:36;90726.78;;;2.44;100.00
59274;BME280;45044;41.572;24.730;2023-04-03T04:03:03;90729.19;;;1.88;100.00
59274;BME280;45044;41.572;24.730;2023-04-03T04:05:30;90725.16;;;1.91;100.00
59274;BME280;45044;41.572;24.730;2023-04-03T04:07:57;90715.66;;;1.95;100.00
59274;BME280;45044;41.572;24.730;2023-04-03T04:10:24;90723.94;;;2.01;100.00
59274;BME280;45044;41.572;24.730;2023-04-03T04:12:51;90720.34;;;2.06;100.00
59274;BME280;45044;41.572;24.730;2023-04-03T04:15:18;90707.44;;;2.25;100.00
59274;BME280;45044;41.572;24.730;2023-04-03T04:17:45;90714.75;;;2.36;100.00
59274;BME280;45044;41.572;24.730;2023-04-03T04:20:12;90712.31;;;2.43;100.00
59274;BME280;45044;41.572;24.730;2023-04-03T04:22:39;90716.75;;;2.43;100.00
59274;BME280;45044;41.572;24.730;2023-04-03T04:25:06;90711.22;;;2.44;100.00
59274;BME280;45044;41.572;24.730;2023-04-03T04:27:33;90730.44;;;2.59;100.00
59274;BME280;45044;41.572;24.730;2023-04-03T04:30:00;90725.59;;;2.58;100.00
59274;BME280;45044;41.572;24.730;2023-04-03T04:32:30;90728.13;;;2.54;100.00
59274;BME280;45044;41.572;24.730;2023-04-03T04:34:57;90732.81;;;2.48;100.00
59274;BME280;45044;41.572;24.730;2023-04-03T04:37:24;90745.03;;;1.99;100.00
59274;BME280;45044;41.572;24.730;2023-04-03T04:39:51;90725.38;;;2.31;100.00
59274;BME280;45044;41.572;24.730;2023-04-03T04:42:17;90718.00;;;2.33;100.00
59274;BME280;45044;41.572;24.730;2023-04-03T04:44:44;90731.03;;;2.20;100.00
59274;BME280;45044;41.572;24.730;2023-04-03T04:47:11;90737.50;;;2.43;100.00
59274;BME280;45044;41.572;24.730;2023-04-03T04:49:38;90723.75;;;2.58;100.00
59274;BME280;45044;41.572;24.730;2023-04-03T04:52:04;90721.28;;;2.82;100.00
59274;BME280;45044;41.572;24.730;2023-04-03T04:54:31;90729.19;;;3.05;100.00
59274;BME280;45044;41.572;24.730;2023-04-03T04:56:58;90721.78;;;3.07;100.00
59274;BME280;45044;41.572;24.730;2023-04-03T04:59:25;90719.69;;;3.13;100.00
59274;BME280;45044;41.572;24.730;2023-04-03T05:01:52;90726.00;;;3.32;100.00
59274;BME280;45044;41.572;24.730;2023-04-03T05:04:18;90709.56;;;3.28;100.00
59274;BME280;45044;41.572;24.730;2023-04-03T05:06:45;90713.97;;;3.43;100.00
59274;BME280;45044;41.572;24.730;2023-04-03T05:09:12;90722.28;;;3.53;100.00
59274;BME280;45044;41.572;24.730;2023-04-03T05:11:39;90724.56;;;3.54;100.00
59274;BME280;45044;41.572;24.730;2023-04-03T05:14:06;90735.13;;;3.85;100.00
59274;BME280;45044;41.572;24.730;2023-04-03T05:16:33;90737.69;;;4.05;100.00
59274;BME280;45044;41.572;24.730;2023-04-03T05:19:00;90757.41;;;4.29;100.00
59274;BME280;45044;41.572;24.730;2023-04-03T05:21:28;90760.66;;;4.46;100.00
59274;BME280;45044;41.572;24.730;2023-04-03T05:23:59;90753.38;;;4.55;100.00
59274;BME280;45044;41.572;24.730;2023-04-03T05:26:30;90760.75;;;4.53;100.00
59274;BME280;45044;41.572;24.730;2023-04-03T05:28:57;90757.03;;;4.54;100.00
59274;BME280;45044;41.572;24.730;2023-04-03T05:31:24;90755.28;;;4.35;100.00
59274;BME280;45044;41.572;24.730;2023-04-03T05:33:51;90747.03;;;3.66;100.00
59274;BME280;45044;41.572;24.730;2023-04-03T05:36:18;90744.00;;;3.84;100.00
59274;BME280;45044;41.572;24.730;2023-04-03T05:38:45;90739.19;;;4.06;100.00
59274;BME280;45044;41.572;24.730;2023-04-03T05:41:13;90736.56;;;3.82;100.00
59274;BME280;45044;41.572;24.730;2023-04-03T05:43:40;90725.34;;;4.02;100.00
59274;BME280;45044;41.572;24.730;2023-04-03T05:46:16;90727.69;;;4.30;100.00
59274;BME280;45044;41.572;24.730;2023-04-03T05:48:43;90734.97;;;4.45;100.00
59274;BME280;45044;41.572;24.730;2023-04-03T05:51:15;90731.72;;;4.51;100.00
59274;BME280;45044;41.572;24.730;2023-04-03T05:53:43;90731.19;;;4.65;100.00
59274;BME280;45044;41.572;24.730;2023-04-03T05:56:12;90734.34;;;4.78;100.00
59274;BME280;45044;41.572;24.730;2023-04-03T05:58:39;90724.88;;;4.94;100.00
59274;BME280;45044;41.572;24.730;2023-04-03T06:01:06;90730.63;;;5.07;100.00
59274;BME280;45044;41.572;24.730;2023-04-03T06:03:34;90714.28;;;5.10;100.00
59274;BME280;45044;41.572;24.730;2023-04-03T06:06:04;90706.84;;;5.08;100.00
59274;BME280;45044;41.572;24.730;2023-04-03T06:08:32;90702.59;;;4.69;100.00
59274;BME280;45044;41.572;24.730;2023-04-03T06:11:00;90705.56;;;4.98;100.00
59274;BME280;45044;41.572;24.730;2023-04-03T06:13:28;90697.31;;;5.20;100.00
59274;BME280;45044;41.572;24.730;2023-04-03T06:15:55;90703.16;;;5.13;100.00
59274;BME280;45044;41.572;24.730;2023-04-03T06:18:24;90700.69;;;5.24;100.00
59274;BME280;45044;41.572;24.730;2023-04-03T06:20:53;90695.69;;;5.42;100.00
59274;BME280;45044;41.572;24.730;2023-04-03T06:23:20;90695.25;;;5.74;100.00
59274;BME280;45044;41.572;24.730;2023-04-03T06:25:46;90707.66;;;5.81;100.00
59274;BME280;45044;41.572;24.730;2023-04-03T06:28:13;90712.31;;;5.65;100.00
59274;BME280;45044;41.572;24.730;2023-04-03T06:30:40;90721.19;;;5.60;100.00
59274;BME280;45044;41.572;24.730;2023-04-03T06:33:07;90721.16;;;5.56;100.00
59274;BME280;45044;41.572;24.730;2023-04-03T06:35:34;90722.00;;;5.64;100.00
59274;BME280;45044;41.572;24.730;2023-04-03T06:38:01;90718.06;;;5.81;100.00
59274;BME280;45044;41.572;24.730;2023-04-03T06:40:30;90725.91;;;5.81;100.00
59274;BME280;45044;41.572;24.730;2023-04-03T06:42:57;90724.50;;;5.91;100.00
59274;BME280;45044;41.572;24.730;2023-04-03T06:45:24;90736.78;;;5.91;100.00
59274;BME280;45044;41.572;24.730;2023-04-03T06:47:51;90747.81;;;6.11;100.00
59274;BME280;45044;41.572;24.730;2023-04-03T06:50:18;90744.13;;;6.12;100.00
59274;BME280;45044;41.572;24.730;2023-04-03T06:52:45;90750.88;;;6.17;100.00
59274;BME280;45044;41.572;24.730;2023-04-03T06:55:12;90745.69;;;6.20;100.00
59274;BME280;45044;41.572;24.730;2023-04-03T06:57:39;90738.69;;;6.32;100.00
59274;BME280;45044;41.572;24.730;2023-04-03T07:00:06;90749.91;;;6.32;100.00
59274;BME280;45044;41.572;24.730;2023-04-03T07:02:33;90748.63;;;6.61;100.00
59274;BME280;45044;41.572;24.730;2023-04-03T07:05:00;90737.53;;;6.75;100.00
59274;BME280;45044;41.572;24.730;2023-04-03T07:07:27;90752.22;;;6.94;100.00
59274;BME280;45044;41.572;24.730;2023-04-03T07:09:53;90736.72;;;6.63;100.00
59274;BME280;45044;41.572;24.730;2023-04-03T07:12:20;90730.41;;;6.68;100.00
59274;BME280;45044;41.572;24.730;2023-04-03T07:14:47;90732.47;;;7.04;100.00
59274;BME280;45044;41.572;24.730;2023-04-03T07:17:14;90730.69;;;7.15;100.00
59274;BME280;45044;41.572;24.730;2023-04-03T07:19:41;90711.41;;;6.75;100.00
59274;BME280;45044;41.572;24.730;2023-04-03T07:22:07;90723.59;;;7.16;100.00
59274;BME280;45044;41.572;24.730;2023-04-03T07:24:34;90695.56;;;7.16;100.00
59274;BME280;45044;41.572;24.730;2023-04-03T07:27:01;90718.94;;;7.62;100.00
59274;BME280;45044;41.572;24.730;2023-04-03T07:29:29;90715.63;;;7.72;100.00
59274;BME280;45044;41.572;24.730;2023-04-03T07:31:56;90710.03;;;7.85;100.00
59274;BME280;45044;41.572;24.730;2023-04-03T07:34:23;90714.19;;;8.04;100.00
59274;BME280;45044;41.572;24.730;2023-04-03T07:36:50;90713.81;;;8.06;100.00
59274;BME280;45044;41.572;24.730;2023-04-03T07:39:17;90712.34;;;8.19;100.00
59274;BME280;45044;41.572;24.730;2023-04-03T07:41:43;90712.72;;;8.14;100.00
59274;BME280;45044;41.572;24.730;2023-04-03T07:44:10;90711.59;;;8.26;100.00
59274;BME280;45044;41.572;24.730;2023-04-03T07:46:37;90709.75;;;8.34;100.00
59274;BME280;45044;41.572;24.730;2023-04-03T07:49:05;90711.97;;;8.17;100.00
59274;BME280;45044;41.572;24.730;2023-04-03T07:51:32;90711.59;;;8.22;100.00
59274;BME280;45044;41.572;24.730;2023-04-03T07:54:01;90711.59;;;8.30;100.00
59274;BME280;45044;41.572;24.730;2023-04-03T07:56:28;90709.34;;;8.24;100.00
59274;BME280;45044;41.572;24.730;2023-04-03T07:58:57;90712.34;;;8.26;100.00
59274;BME280;45044;41.572;24.730;2023-04-03T08:01:28;90707.84;;;8.27;100.00
59274;BME280;45044;41.572;24.730;2023-04-03T08:03:58;90710.84;;;8.33;100.00
59274;BME280;45044;41.572;24.730;2023-04-03T08:06:26;90698.88;;;8.24;100.00
59274;BME280;45044;41.572;24.730;2023-04-03T08:09:10;90705.22;;;8.12;100.00
59274;BME280;45044;41.572;24.730;2023-04-03T08:11:39;90705.91;;;7.84;100.00
59274;BME280;45044;41.572;24.730;2023-04-03T08:14:07;90704.81;;;7.88;100.00
59274;BME280;45044;41.572;24.730;2023-04-03T08:16:34;90706.69;;;7.91;100.00
59274;BME280;45044;41.572;24.730;2023-04-03T08:19:00;90699.19;;;7.83;100.00
59274;BME280;45044;41.572;24.730;2023-04-03T08:21:29;90694.75;;;8.01;100.00
59274;BME280;45044;41.572;24.730;2023-04-03T08:23:55;90685.38;;;7.97;100.00
59274;BME280;45044;41.572;24.730;2023-04-03T08:26:22;90699.63;;;8.07;100.00
59274;BME280;45044;41.572;24.730;2023-04-03T08:28:49;90695.09;;;8.07;100.00
59274;BME280;45044;41.572;24.730;2023-04-03T08:31:18;90694.34;;;7.92;100.00
59274;BME280;45044;41.572;24.730;2023-04-03T08:33:46;90689.88;;;8.00;100.00
59274;BME280;45044;41.572;24.730;2023-04-03T08:36:22;90698.06;;;7.91;100.00
59274;BME280;45044;41.572;24.730;2023-04-03T08:38:50;90709.22;;;7.66;100.00
59274;BME280;45044;41.572;24.730;2023-04-03T08:44:00;90719.72;;;7.70;100.00
59274;BME280;45044;41.572;24.730;2023-04-03T08:46:59;90726.47;;;7.85;100.00
59274;BME280;45044;41.572;24.730;2023-04-03T08:49:32;90719.78;;;7.99;100.00
59274;BME280;45044;41.572;24.730;2023-04-03T08:52:02;90722.03;;;8.04;100.00
59274;BME280;45044;41.572;24.730;2023-04-03T08:54:50;90696.59;;;7.86;100.00
59274;BME280;45044;41.572;24.730;2023-04-03T08:57:33;90725.41;;;8.08;100.00
59274;BME280;45044;41.572;24.730;2023-04-03T09:00:04;90717.94;;;8.07;100.00
59274;BME280;45044;41.572;24.730;2023-04-03T09:02:55;90707.84;;;7.98;100.00
59274;BME280;45044;41.572;24.730;2023-04-03T09:08:11;90689.16;;;8.14;100.00
59274;BME280;45044;41.572;24.730;2023-04-03T09:10:41;90675.63;;;7.83;100.00
59274;BME280;45044;41.572;24.730;2023-04-03T09:15:50;90657.69;;;7.77;100.00
59274;BME280;45044;41.572;24.730;2023-04-03T09:18:20;90648.66;;;7.57;100.00
59274;BME280;45044;41.572;24.730;2023-04-03T09:21:16;90652.78;;;7.58;100.00
59274;BME280;45044;41.572;24.730;2023-04-03T09:23:49;90662.75;;;7.19;100.00
59274;BME280;45044;41.572;24.730;2023-04-03T09:26:19;90656.28;;;6.98;100.00
59274;BME280;45044;41.572;24.730;2023-04-03T09:28:49;90662.00;;;7.22;100.00
59274;BME280;45044;41.572;24.730;2023-04-03T09:31:19;90648.97;;;7.37;100.00
59274;BME280;45044;41.572;24.730;2023-04-03T09:33:49;90654.94;;;7.30;100.00
59274;BME280;45044;41.572;24.730;2023-04-03T09:36:42;90663.47;;;7.16;100.00
59274;BME280;45044;41.572;24.730;2023-04-03T09:39:21;90672.84;;;7.24;100.00
59274;BME280;45044;41.572;24.730;2023-04-03T09:42:02;90675.44;;;7.24;100.00
59274;BME280;45044;41.572;24.730;2023-04-03T09:44:35;90668.06;;;7.41;100.00
59274;BME280;45044;41.572;24.730;2023-04-03T09:47:30;90679.97;;;7.35;100.00
59274;BME280;45044;41.572;24.730;2023-04-03T09:52:46;90676.94;;;7.22;100.00
59274;BME280;45044;41.572;24.730;2023-04-03T09:55:21;90677.00;;;7.40;100.00
59274;BME280;45044;41.572;24.730;2023-04-03T09:57:57;90680.34;;;7.37;100.00
59274;BME280;45044;41.572;24.730;2023-04-03T10:00:31;90685.16;;;7.27;100.00
59274;BME280;45044;41.572;24.730;2023-04-03T10:03:00;90688.16;;;7.29;100.00
59274;BME280;45044;41.572;24.730;2023-04-03T10:10:44;90693.44;;;7.37;100.00
59274;BME280;45044;41.572;24.730;2023-04-03T10:13:12;90687.41;;;7.29;100.00
59274;BME280;45044;41.572;24.730;2023-04-03T10:16:03;90691.16;;;7.28;100.00
59274;BME280;45044;41.572;24.730;2023-04-03T10:18:41;90697.22;;;7.47;100.00
59274;BME280;45044;41.572;24.730;2023-04-03T10:24:10;90691.16;;;7.28;100.00
59274;BME280;45044;41.572;24.730;2023-04-03T10:29:40;90677.44;;;7.64;100.00
59274;BME280;45044;41.572;24.730;2023-04-03T10:34:53;90664.28;;;7.35;100.00
59274;BME280;45044;41.572;24.730;2023-04-03T10:37:43;90664.69;;;7.44;100.00
59274;BME280;45044;41.572;24.730;2023-04-03T10:40:30;90679.63;;;7.40;100.00
59274;BME280;45044;41.572;24.730;2023-04-03T10:48:40;90665.88;;;7.58;100.00
59274;BME280;45044;41.572;24.730;2023-04-03T10:54:04;90657.69;;;7.81;100.00
59274;BME280;45044;41.572;24.730;2023-04-03T10:56:50;90656.13;;;7.58;100.00
59274;BME280;45044;41.572;24.730;2023-04-03T11:02:17;90653.09;;;7.34;100.00
59274;BME280;45044;41.572;24.730;2023-04-03T11:04:48;90645.94;;;7.27;100.00
59274;BME280;45044;41.572;24.730;2023-04-03T11:07:26;90644.88;;;7.36;100.00
59274;BME280;45044;41.572;24.730;2023-04-03T11:10:02;90642.66;;;7.45;100.00
59274;BME280;45044;41.572;24.730;2023-04-03T11:15:02;90629.16;;;7.28;100.00
59274;BME280;45044;41.572;24.730;2023-04-03T11:17:40;90626.22;;;7.45;100.00
59274;BME280;45044;41.572;24.730;2023-04-03T11:20:22;90630.69;;;7.40;100.00
59274;BME280;45044;41.572;24.730;2023-04-03T11:25:26;90631.78;;;7.32;100.00
59274;BME280;45044;41.572;24.730;2023-04-03T11:28:04;90627.59;;;7.13;100.00
59274;BME280;45044;41.572;24.730;2023-04-03T11:36:25;90623.88;;;7.14;100.00
59274;BME280;45044;41.572;24.730;2023-04-03T11:39:10;90619.47;;;7.36;100.00
59274;BME280;45044;41.572;24.730;2023-04-03T11:41:43;90606.72;;;7.20;100.00
59274;BME280;45044;41.572;24.730;2023-04-03T11:44:35;90605.31;;;7.48;100.00
59274;BME280;45044;41.572;24.730;2023-04-03T11:47:09;90601.16;;;7.33;100.00
59274;BME280;45044;41.572;24.730;2023-04-03T11:49:58;90603.75;;;7.25;100.00
59274;BME280;45044;41.572;24.730;2023-04-03T12:16:28;90573.88;;;7.26;100.00
59274;BME280;45044;41.572;24.730;2023-04-03T12:41:32;90549.25;;;7.38;100.00
59274;BME280;45044;41.572;24.730;2023-04-03T12:44:35;90547.75;;;7.37;100.00
59274;BME280;45044;41.572;24.730;2023-04-03T12:47:20;90550.00;;;7.35;100.00
59274;BME280;45044;41.572;24.730;2023-04-03T12:49:49;90544.00;;;7.35;100.00
59274;BME280;45044;41.572;24.730;2023-04-03T12:54:59;90522.34;;;7.30;100.00
59274;BME280;45044;41.572;24.730;2023-04-03T12:57:36;90508.13;;;7.17;100.00
59274;BME280;45044;41.572;24.730;2023-04-03T13:00:25;90505.53;;;7.24;100.00
59274;BME280;45044;41.572;24.730;2023-04-03T13:02:54;90498.44;;;7.17;100.00
59274;BME280;45044;41.572;24.730;2023-04-03T13:05:22;90468.88;;;6.88;100.00
59274;BME280;45044;41.572;24.730;2023-04-03T13:08:00;90493.56;;;7.16;100.00
59274;BME280;45044;41.572;24.730;2023-04-03T13:10:29;90487.97;;;7.14;100.00
59274;BME280;45044;41.572;24.730;2023-04-03T13:13:07;90471.91;;;7.26;100.00
59274;BME280;45044;41.572;24.730;2023-04-03T13:15:45;90464.41;;;6.88;100.00
59274;BME280;45044;41.572;24.730;2023-04-03T13:18:28;90496.03;;;6.61;100.00
59274;BME280;45044;41.572;24.730;2023-04-03T13:21:05;90483.66;;;6.47;100.00
59274;BME280;45044;41.572;24.730;2023-04-03T13:23:35;90482.53;;;6.41;100.00
59274;BME280;45044;41.572;24.730;2023-04-03T13:26:03;90488.16;;;6.50;100.00
59274;BME280;45044;41.572;24.730;2023-04-03T13:28:31;90469.94;;;6.65;100.00
59274;BME280;45044;41.572;24.730;2023-04-03T13:31:04;90472.97;;;6.85;100.00
59274;BME280;45044;41.572;24.730;2023-04-03T13:33:35;90477.00;;;6.61;100.00
59274;BME280;45044;41.572;24.730;2023-04-03T13:38:42;90449.09;;;6.87;100.00
59274;BME280;45044;41.572;24.730;2023-04-03T13:41:44;90434.16;;;7.02;100.00
59274;BME280;45044;41.572;24.730;2023-04-03T13:47:01;90449.78;;;6.69;100.00
59274;BME280;45044;41.572;24.730;2023-04-03T13:49:42;90462.09;;;6.57;100.00
59274;BME280;45044;41.572;24.730;2023-04-03T13:52:25;90451.28;;;6.70;100.00
59274;BME280;45044;41.572;24.730;2023-04-03T13:54:59;90454.69;;;6.85;100.00
59274;BME280;45044;41.572;24.730;2023-04-03T13:57:29;90434.53;;;6.93;100.00
59274;BME280;45044;41.572;24.730;2023-04-03T13:59:56;90428.91;;;6.76;100.00
59274;BME280;45044;41.572;24.730;2023-04-03T14:02:32;90430.81;;;6.94;100.00
59274;BME280;45044;41.572;24.730;2023-04-03T14:05:03;90432.69;;;7.08;100.00
59274;BME280;45044;41.572;24.730;2023-04-03T14:07:30;90438.28;;;7.03;100.00
59274;BME280;45044;41.572;24.730;2023-04-03T14:10:00;90433.44;;;6.94;100.00
59274;BME280;45044;41.572;24.730;2023-04-03T14:12:31;90424.84;;;6.93;100.00
59274;BME280;45044;41.572;24.730;2023-04-03T14:15:00;90426.66;;;6.78;100.00
59274;BME280;45044;41.572;24.730;2023-04-03T14:17:28;90425.91;;;6.59;100.00
59274;BME280;45044;41.572;24.730;2023-04-03T14:19:55;90431.75;;;6.31;100.00
59274;BME280;45044;41.572;24.730;2023-04-03T14:22:26;90419.81;;;6.26;100.00
59274;BME280;45044;41.572;24.730;2023-04-03T14:24:53;90422.00;;;6.09;100.00
59274;BME280;45044;41.572;24.730;2023-04-03T14:29:53;90419.84;;;6.33;100.00
59274;BME280;45044;41.572;24.730;2023-04-03T14:32:22;90406.50;;;6.61;100.00
59274;BME280;45044;41.572;24.730;2023-04-03T14:34:50;90400.53;;;6.64;100.00
59274;BME280;45044;41.572;24.730;2023-04-03T14:37:20;90403.84;;;6.50;100.00
59274;BME280;45044;41.572;24.730;2023-04-03T14:39:48;90406.84;;;6.48;100.00
59274;BME280;45044;41.572;24.730;2023-04-03T14:42:19;90408.63;;;6.22;100.00
59274;BME280;45044;41.572;24.730;2023-04-03T14:44:46;90402.25;;;6.08;100.00
59274;BME280;45044;41.572;24.730;2023-04-03T14:47:16;90401.19;;;6.31;100.00
59274;BME280;45044;41.572;24.730;2023-04-03T14:49:58;90408.63;;;6.22;100.00
59274;BME280;45044;41.572;24.730;2023-04-03T14:52:31;90416.34;;;6.04;100.00
59274;BME280;45044;41.572;24.730;2023-04-03T14:55:00;90401.88;;;6.14;100.00
59274;BME280;45044;41.572;24.730;2023-04-03T14:57:28;90340.63;;;5.89;100.00
59274;BME280;45044;41.572;24.730;2023-04-03T14:59:57;90370.63;;;6.32;100.00
59274;BME280;45044;41.572;24.730;2023-04-03T15:02:30;90375.50;;;6.41;100.00
59274;BME280;45044;41.572;24.730;2023-04-03T15:05:02;90361.69;;;6.51;100.00
59274;BME280;45044;41.572;24.730;2023-04-03T15:07:33;90361.69;;;6.51;100.00